KMDQ

Huntsville Executive Tom Sharp Jr Field Airport

Huntsville, Alabama, USA
METAR KMDQ 172115Z AUTO 33004KT 5SM -RA BR BKN011 OVC018 08/07 A3008 RMK AO2 P0002 T00820075
Observed Flight Rules
Feb-17 @ 21:15 UTC (19 minutes ago) Marginal Visual Flight Rules
Wind Visibility Clouds Conditions
330° at 4 knots 5 miles
  • Broken at 1,100' AGL
  • Overcast at 1,800' AGL
  • Light Rain
  • Mist
Temperatures Readings Precipitation
Current 8°C / 46°F
Dewpoint 8°C / 46°F
Humidity 100%
Altimeter 30.08" Hg
Pressure 1019 hPa
Elevation 230
Current Rain 0.02
METAR KMDQ 172115Z AUTO 33004KT 5SM -RA BR BKN011 OVC018 08/07 A3008 RMK AO2 P0002 T00820075
Observed Flight Rules
Feb-17 @ 21:15 UTC
(19 minutes ago)
MVFR
Wind Visibility
330° at 4 knots 5 miles
Clouds
  • Broken at 1,100' AGL
  • Overcast at 1,800' AGL
Conditions
  • Light Rain
  • Mist
Temperature Dewpoint
8°C / 46°F 8°C / 46°F
Humidity Altimeter Pressure
100% 30.08" Hg 1019 hPa
Current Rain
0.02